sensor_id;sensor_type;location;lat;lon;timestamp;temperature;humidity
11744;DHT22;5929;51.906;7.674;2023-04-03T00:01:50;4.40;99.90
11744;DHT22;5929;51.906;7.674;2023-04-03T00:04:17;4.40;99.90
11744;DHT22;5929;51.906;7.674;2023-04-03T00:06:43;4.30;99.90
11744;DHT22;5929;51.906;7.674;2023-04-03T00:09:10;4.30;99.90
11744;DHT22;5929;51.906;7.674;2023-04-03T00:11:38;4.30;99.90
11744;DHT22;5929;51.906;7.674;2023-04-03T00:14:05;4.30;99.90
11744;DHT22;5929;51.906;7.674;2023-04-03T00:16:32;4.20;99.90
11744;DHT22;5929;51.906;7.674;2023-04-03T00:18:59;4.20;99.90
11744;DHT22;5929;51.906;7.674;2023-04-03T00:21:25;4.00;99.90
11744;DHT22;5929;51.906;7.674;2023-04-03T00:23:52;4.00;99.90
11744;DHT22;5929;51.906;7.674;2023-04-03T00:26:19;3.90;99.90
11744;DHT22;5929;51.906;7.674;2023-04-03T00:28:47;3.80;99.90
11744;DHT22;5929;51.906;7.674;2023-04-03T00:31:15;3.70;99.90
11744;DHT22;5929;51.906;7.674;2023-04-03T00:33:42;3.70;99.90
11744;DHT22;5929;51.906;7.674;2023-04-03T00:36:10;3.70;99.90
11744;DHT22;5929;51.906;7.674;2023-04-03T00:38:37;3.70;99.90
11744;DHT22;5929;51.906;7.674;2023-04-03T00:41:04;3.70;99.90
11744;DHT22;5929;51.906;7.674;2023-04-03T00:43:31;3.70;99.90
11744;DHT22;5929;51.906;7.674;2023-04-03T00:45:59;3.70;99.90
11744;DHT22;5929;51.906;7.674;2023-04-03T00:48:31;3.70;99.90
11744;DHT22;5929;51.906;7.674;2023-04-03T00:50:59;3.70;99.90
11744;DHT22;5929;51.906;7.674;2023-04-03T00:53:29;3.60;99.90
11744;DHT22;5929;51.906;7.674;2023-04-03T00:55:57;3.70;99.90
11744;DHT22;5929;51.906;7.674;2023-04-03T00:58:28;3.70;99.90
11744;DHT22;5929;51.906;7.674;2023-04-03T01:01:02;3.70;99.90
11744;DHT22;5929;51.906;7.674;2023-04-03T01:03:30;3.60;99.90
11744;DHT22;5929;51.906;7.674;2023-04-03T01:05:58;3.60;99.90
11744;DHT22;5929;51.906;7.674;2023-04-03T01:08:25;3.60;99.90
11744;DHT22;5929;51.906;7.674;2023-04-03T01:10:52;3.60;99.90
11744;DHT22;5929;51.906;7.674;2023-04-03T01:13:21;3.60;99.90
11744;DHT22;5929;51.906;7.674;2023-04-03T01:15:48;3.60;99.90
11744;DHT22;5929;51.906;7.674;2023-04-03T01:18:17;3.60;99.90
11744;DHT22;5929;51.906;7.674;2023-04-03T01:26:39;3.40;99.90
11744;DHT22;5929;51.906;7.674;2023-04-03T01:29:06;3.30;99.90
11744;DHT22;5929;51.906;7.674;2023-04-03T01:31:48;3.30;99.90
11744;DHT22;5929;51.906;7.674;2023-04-03T01:34:15;3.30;99.90
11744;DHT22;5929;51.906;7.674;2023-04-03T01:36:42;3.30;99.90
11744;DHT22;5929;51.906;7.674;2023-04-03T01:39:09;3.20;99.90
11744;DHT22;5929;51.906;7.674;2023-04-03T01:41:36;3.20;99.90
11744;DHT22;5929;51.906;7.674;2023-04-03T01:44:03;3.20;99.90
11744;DHT22;5929;51.906;7.674;2023-04-03T01:46:30;3.20;99.90
11744;DHT22;5929;51.906;7.674;2023-04-03T01:49:02;3.20;99.90
11744;DHT22;5929;51.906;7.674;2023-04-03T01:51:29;3.10;99.90
11744;DHT22;5929;51.906;7.674;2023-04-03T01:53:56;2.90;99.90
11744;DHT22;5929;51.906;7.674;2023-04-03T01:56:23;2.90;99.90
11744;DHT22;5929;51.906;7.674;2023-04-03T01:58:50;2.90;99.90
11744;DHT22;5929;51.906;7.674;2023-04-03T02:01:17;2.90;99.90
11744;DHT22;5929;51.906;7.674;2023-04-03T02:03:44;2.90;99.90
11744;DHT22;5929;51.906;7.674;2023-04-03T02:06:12;2.90;99.90
11744;DHT22;5929;51.906;7.674;2023-04-03T02:08:39;2.90;99.90
11744;DHT22;5929;51.906;7.674;2023-04-03T02:11:07;2.80;99.90
11744;DHT22;5929;51.906;7.674;2023-04-03T02:13:33;2.80;99.90
11744;DHT22;5929;51.906;7.674;2023-04-03T02:16:06;2.80;99.90
11744;DHT22;5929;51.906;7.674;2023-04-03T02:18:33;2.70;99.90
11744;DHT22;5929;51.906;7.674;2023-04-03T02:21:00;2.80;99.90
11744;DHT22;5929;51.906;7.674;2023-04-03T02:23:28;2.70;99.90
11744;DHT22;5929;51.906;7.674;2023-04-03T02:26:03;2.70;99.90
11744;DHT22;5929;51.906;7.674;2023-04-03T02:28:31;2.70;99.90
11744;DHT22;5929;51.906;7.674;2023-04-03T02:31:00;2.70;99.90
11744;DHT22;5929;51.906;7.674;2023-04-03T02:33:27;2.70;99.90
11744;DHT22;5929;51.906;7.674;2023-04-03T02:35:54;2.60;99.90
11744;DHT22;5929;51.906;7.674;2023-04-03T02:38:21;2.60;99.90
11744;DHT22;5929;51.906;7.674;2023-04-03T02:40:50;2.50;99.90
11744;DHT22;5929;51.906;7.674;2023-04-03T02:43:17;2.40;99.90
11744;DHT22;5929;51.906;7.674;2023-04-03T02:45:44;2.40;99.90
11744;DHT22;5929;51.906;7.674;2023-04-03T02:48:11;2.30;99.90
11744;DHT22;5929;51.906;7.674;2023-04-03T02:50:38;2.20;99.90
11744;DHT22;5929;51.906;7.674;2023-04-03T02:53:07;2.30;99.90
11744;DHT22;5929;51.906;7.674;2023-04-03T02:55:34;2.20;99.90
11744;DHT22;5929;51.906;7.674;2023-04-03T02:58:02;2.20;99.90
11744;DHT22;5929;51.906;7.674;2023-04-03T03:00:29;2.30;99.90
11744;DHT22;5929;51.906;7.674;2023-04-03T03:02:56;2.20;99.90
11744;DHT22;5929;51.906;7.674;2023-04-03T03:05:23;2.10;99.90
11744;DHT22;5929;51.906;7.674;2023-04-03T03:07:50;2.10;99.90
11744;DHT22;5929;51.906;7.674;2023-04-03T03:10:17;2.10;99.90
11744;DHT22;5929;51.906;7.674;2023-04-03T03:12:44;2.00;99.90
11744;DHT22;5929;51.906;7.674;2023-04-03T03:15:12;2.00;99.90
11744;DHT22;5929;51.906;7.674;2023-04-03T03:17:39;2.00;99.90
11744;DHT22;5929;51.906;7.674;2023-04-03T03:20:07;1.90;99.90
11744;DHT22;5929;51.906;7.674;2023-04-03T03:22:34;1.90;99.90
11744;DHT22;5929;51.906;7.674;2023-04-03T03:25:01;2.00;99.90
11744;DHT22;5929;51.906;7.674;2023-04-03T03:27:28;2.00;99.90
11744;DHT22;5929;51.906;7.674;2023-04-03T03:29:55;1.90;99.90
11744;DHT22;5929;51.906;7.674;2023-04-03T03:32:23;1.90;99.90
11744;DHT22;5929;51.906;7.674;2023-04-03T03:34:50;1.80;99.90
11744;DHT22;5929;51.906;7.674;2023-04-03T03:37:17;1.90;99.90
11744;DHT22;5929;51.906;7.674;2023-04-03T03:39:44;1.90;99.90
11744;DHT22;5929;51.906;7.674;2023-04-03T03:42:11;1.80;99.90
11744;DHT22;5929;51.906;7.674;2023-04-03T03:44:38;1.70;99.90
11744;DHT22;5929;51.906;7.674;2023-04-03T03:47:05;1.60;99.90
11744;DHT22;5929;51.906;7.674;2023-04-03T03:49:33;1.60;99.90
11744;DHT22;5929;51.906;7.674;2023-04-03T03:52:00;1.50;99.90
11744;DHT22;5929;51.906;7.674;2023-04-03T03:54:27;1.50;99.90
11744;DHT22;5929;51.906;7.674;2023-04-03T03:56:54;1.40;99.90
11744;DHT22;5929;51.906;7.674;2023-04-03T03:59:21;1.30;99.90
11744;DHT22;5929;51.906;7.674;2023-04-03T04:01:47;1.30;99.90
11744;DHT22;5929;51.906;7.674;2023-04-03T04:04:14;1.30;99.90
11744;DHT22;5929;51.906;7.674;2023-04-03T04:06:42;1.40;99.90
11744;DHT22;5929;51.906;7.674;2023-04-03T04:09:10;1.30;99.90
11744;DHT22;5929;51.906;7.674;2023-04-03T04:11:37;1.20;99.90
11744;DHT22;5929;51.906;7.674;2023-04-03T04:14:05;1.30;99.90
11744;DHT22;5929;51.906;7.674;2023-04-03T04:16:32;1.40;99.90
11744;DHT22;5929;51.906;7.674;2023-04-03T04:18:59;1.30;99.90
11744;DHT22;5929;51.906;7.674;2023-04-03T04:21:25;1.30;99.90
11744;DHT22;5929;51.906;7.674;2023-04-03T04:23:56;1.30;99.90
11744;DHT22;5929;51.906;7.674;2023-04-03T04:26:23;1.40;99.90
11744;DHT22;5929;51.906;7.674;2023-04-03T04:28:50;1.30;99.90
11744;DHT22;5929;51.906;7.674;2023-04-03T04:31:17;1.30;99.90
11744;DHT22;5929;51.906;7.674;2023-04-03T04:33:43;1.30;99.90
11744;DHT22;5929;51.906;7.674;2023-04-03T04:36:11;1.30;99.90
11744;DHT22;5929;51.906;7.674;2023-04-03T04:38:37;1.20;99.90
11744;DHT22;5929;51.906;7.674;2023-04-03T04:41:06;1.30;99.90
11744;DHT22;5929;51.906;7.674;2023-04-03T04:43:33;1.30;99.90
11744;DHT22;5929;51.906;7.674;2023-04-03T04:46:02;1.30;99.90
11744;DHT22;5929;51.906;7.674;2023-04-03T04:48:29;1.40;99.90
11744;DHT22;5929;51.906;7.674;2023-04-03T04:50:55;1.30;99.90
11744;DHT22;5929;51.906;7.674;2023-04-03T04:53:25;1.30;99.90
11744;DHT22;5929;51.906;7.674;2023-04-03T04:55:52;1.30;99.90
11744;DHT22;5929;51.906;7.674;2023-04-03T04:58:20;1.20;99.90
11744;DHT22;5929;51.906;7.674;2023-04-03T05:00:47;1.10;99.90
11744;DHT22;5929;51.906;7.674;2023-04-03T05:03:14;1.20;99.90
11744;DHT22;5929;51.906;7.674;2023-04-03T05:05:41;1.10;99.90
11744;DHT22;5929;51.906;7.674;2023-04-03T05:08:08;1.00;99.90
11744;DHT22;5929;51.906;7.674;2023-04-03T05:10:35;0.90;99.90
11744;DHT22;5929;51.906;7.674;2023-04-03T05:13:01;1.00;99.90
11744;DHT22;5929;51.906;7.674;2023-04-03T05:15:30;1.00;99.90
11744;DHT22;5929;51.906;7.674;2023-04-03T05:17:56;1.10;99.90
11744;DHT22;5929;51.906;7.674;2023-04-03T05:20:23;1.10;99.90
11744;DHT22;5929;51.906;7.674;2023-04-03T05:22:50;1.10;99.90
11744;DHT22;5929;51.906;7.674;2023-04-03T05:25:17;1.10;99.90
11744;DHT22;5929;51.906;7.674;2023-04-03T05:27:44;1.10;99.90
11744;DHT22;5929;51.906;7.674;2023-04-03T05:30:12;1.10;99.90
11744;DHT22;5929;51.906;7.674;2023-04-03T05:32:40;1.10;99.90
11744;DHT22;5929;51.906;7.674;2023-04-03T05:35:08;1.10;99.90
11744;DHT22;5929;51.906;7.674;2023-04-03T05:37:35;1.10;99.90
11744;DHT22;5929;51.906;7.674;2023-04-03T05:40:06;1.20;99.90
11744;DHT22;5929;51.906;7.674;2023-04-03T05:42:33;1.10;99.90
11744;DHT22;5929;51.906;7.674;2023-04-03T05:45:00;1.10;99.90
11744;DHT22;5929;51.906;7.674;2023-04-03T05:47:27;1.10;99.90
11744;DHT22;5929;51.906;7.674;2023-04-03T05:49:55;1.10;99.90
11744;DHT22;5929;51.906;7.674;2023-04-03T05:52:26;1.20;99.90
11744;DHT22;5929;51.906;7.674;2023-04-03T05:54:53;1.20;99.90
11744;DHT22;5929;51.906;7.674;2023-04-03T05:57:20;1.30;99.90
11744;DHT22;5929;51.906;7.674;2023-04-03T05:59:48;1.30;99.90
11744;DHT22;5929;51.906;7.674;2023-04-03T06:02:17;1.30;99.90
11744;DHT22;5929;51.906;7.674;2023-04-03T06:04:45;1.30;99.90
11744;DHT22;5929;51.906;7.674;2023-04-03T06:07:14;1.40;99.90
11744;DHT22;5929;51.906;7.674;2023-04-03T06:09:42;1.40;99.90
11744;DHT22;5929;51.906;7.674;2023-04-03T06:12:09;1.40;99.90
11744;DHT22;5929;51.906;7.674;2023-04-03T06:14:37;1.40;99.90
11744;DHT22;5929;51.906;7.674;2023-04-03T06:17:03;1.50;99.90
11744;DHT22;5929;51.906;7.674;2023-04-03T06:19:31;1.50;99.90
11744;DHT22;5929;51.906;7.674;2023-04-03T06:21:58;1.60;99.90
11744;DHT22;5929;51.906;7.674;2023-04-03T06:24:27;1.60;99.90
11744;DHT22;5929;51.906;7.674;2023-04-03T06:26:54;1.70;99.90
11744;DHT22;5929;51.906;7.674;2023-04-03T06:29:21;1.70;99.90
11744;DHT22;5929;51.906;7.674;2023-04-03T06:31:48;1.70;99.90
11744;DHT22;5929;51.906;7.674;2023-04-03T06:34:15;1.80;99.90
11744;DHT22;5929;51.906;7.674;2023-04-03T06:36:42;1.80;99.90
11744;DHT22;5929;51.906;7.674;2023-04-03T06:39:13;1.90;99.90
11744;DHT22;5929;51.906;7.674;2023-04-03T06:41:42;1.80;99.90
11744;DHT22;5929;51.906;7.674;2023-04-03T06:44:09;1.90;99.90
11744;DHT22;5929;51.906;7.674;2023-04-03T06:46:37;1.90;99.90
11744;DHT22;5929;51.906;7.674;2023-04-03T06:49:04;2.00;99.90
11744;DHT22;5929;51.906;7.674;2023-04-03T06:51:33;2.10;99.90
11744;DHT22;5929;51.906;7.674;2023-04-03T06:54:01;2.10;99.90
11744;DHT22;5929;51.906;7.674;2023-04-03T06:56:28;2.20;99.90
11744;DHT22;5929;51.906;7.674;2023-04-03T06:58:57;2.20;99.90
11744;DHT22;5929;51.906;7.674;2023-04-03T07:01:25;2.20;99.90
11744;DHT22;5929;51.906;7.674;2023-04-03T07:03:56;2.30;99.90
11744;DHT22;5929;51.906;7.674;2023-04-03T07:06:25;2.30;99.90
11744;DHT22;5929;51.906;7.674;2023-04-03T07:08:53;2.40;99.90
11744;DHT22;5929;51.906;7.674;2023-04-03T07:11:20;2.40;99.90
11744;DHT22;5929;51.906;7.674;2023-04-03T07:13:47;2.50;99.90
11744;DHT22;5929;51.906;7.674;2023-04-03T07:16:16;2.50;99.90
11744;DHT22;5929;51.906;7.674;2023-04-03T07:18:43;2.60;99.90
11744;DHT22;5929;51.906;7.674;2023-04-03T07:21:10;2.60;99.90
11744;DHT22;5929;51.906;7.674;2023-04-03T07:23:37;2.70;99.80
11744;DHT22;5929;51.906;7.674;2023-04-03T07:26:04;2.80;99.90
11744;DHT22;5929;51.906;7.674;2023-04-03T07:28:31;2.80;99.40
11744;DHT22;5929;51.906;7.674;2023-04-03T07:31:01;2.90;99.20
11744;DHT22;5929;51.906;7.674;2023-04-03T07:33:29;2.90;99.10
11744;DHT22;5929;51.906;7.674;2023-04-03T07:35:56;3.00;98.90
11744;DHT22;5929;51.906;7.674;2023-04-03T07:38:23;3.00;98.60
11744;DHT22;5929;51.906;7.674;2023-04-03T07:40:51;3.00;98.60
11744;DHT22;5929;51.906;7.674;2023-04-03T07:43:20;3.10;98.10
11744;DHT22;5929;51.906;7.674;2023-04-03T07:45:47;3.10;97.60
11744;DHT22;5929;51.906;7.674;2023-04-03T07:48:16;3.20;97.90
11744;DHT22;5929;51.906;7.674;2023-04-03T07:50:45;3.20;97.70
11744;DHT22;5929;51.906;7.674;2023-04-03T07:53:12;3.30;97.20
11744;DHT22;5929;51.906;7.674;2023-04-03T07:55:39;3.30;97.30
11744;DHT22;5929;51.906;7.674;2023-04-03T07:58:09;3.30;97.40
11744;DHT22;5929;51.906;7.674;2023-04-03T08:00:36;3.40;97.60
11744;DHT22;5929;51.906;7.674;2023-04-03T08:03:03;3.50;97.80
11744;DHT22;5929;51.906;7.674;2023-04-03T08:05:30;3.50;97.70
11744;DHT22;5929;51.906;7.674;2023-04-03T08:07:59;3.50;97.20
11744;DHT22;5929;51.906;7.674;2023-04-03T08:10:26;3.70;97.20
11744;DHT22;5929;51.906;7.674;2023-04-03T08:12:52;3.70;96.80
11744;DHT22;5929;51.906;7.674;2023-04-03T08:15:19;3.80;96.50
11744;DHT22;5929;51.906;7.674;2023-04-03T08:17:46;3.90;96.20
11744;DHT22;5929;51.906;7.674;2023-04-03T08:20:13;3.90;95.30
11744;DHT22;5929;51.906;7.674;2023-04-03T08:22:40;3.90;95.20
11744;DHT22;5929;51.906;7.674;2023-04-03T08:25:09;4.00;96.10
11744;DHT22;5929;51.906;7.674;2023-04-03T08:27:36;4.10;96.00
11744;DHT22;5929;51.906;7.674;2023-04-03T08:30:04;4.10;95.50
11744;DHT22;5929;51.906;7.674;2023-04-03T08:32:33;4.20;95.00
11744;DHT22;5929;51.906;7.674;2023-04-03T08:35:00;4.30;95.50
11744;DHT22;5929;51.906;7.674;2023-04-03T08:37:26;4.40;94.50
11744;DHT22;5929;51.906;7.674;2023-04-03T08:39:53;4.40;94.50
11744;DHT22;5929;51.906;7.674;2023-04-03T08:42:35;4.50;93.80
11744;DHT22;5929;51.906;7.674;2023-04-03T08:45:09;4.50;93.20
11744;DHT22;5929;51.906;7.674;2023-04-03T08:47:40;4.60;93.00
11744;DHT22;5929;51.906;7.674;2023-04-03T08:50:13;4.50;92.50
11744;DHT22;5929;51.906;7.674;2023-04-03T08:52:44;4.60;93.30
11744;DHT22;5929;51.906;7.674;2023-04-03T08:55:20;4.80;93.20
11744;DHT22;5929;51.906;7.674;2023-04-03T08:57:51;4.90;92.90
11744;DHT22;5929;51.906;7.674;2023-04-03T09:00:23;4.90;92.70
11744;DHT22;5929;51.906;7.674;2023-04-03T09:02:53;5.00;93.10
11744;DHT22;5929;51.906;7.674;2023-04-03T09:05:29;5.00;92.60
11744;DHT22;5929;51.906;7.674;2023-04-03T09:08:04;5.10;92.40
11744;DHT22;5929;51.906;7.674;2023-04-03T09:10:37;5.10;90.70
11744;DHT22;5929;51.906;7.674;2023-04-03T09:13:11;5.10;90.50
11744;DHT22;5929;51.906;7.674;2023-04-03T09:15:40;5.20;90.40
11744;DHT22;5929;51.906;7.674;2023-04-03T09:18:13;5.30;90.40
11744;DHT22;5929;51.906;7.674;2023-04-03T09:20:46;5.20;90.00
11744;DHT22;5929;51.906;7.674;2023-04-03T09:23:21;5.30;90.50
11744;DHT22;5929;51.906;7.674;2023-04-03T09:25:50;5.30;90.00
11744;DHT22;5929;51.906;7.674;2023-04-03T09:28:21;5.40;90.40
11744;DHT22;5929;51.906;7.674;2023-04-03T09:30:47;5.40;89.50
11744;DHT22;5929;51.906;7.674;2023-04-03T09:33:15;5.50;90.40
11744;DHT22;5929;51.906;7.674;2023-04-03T09:35:43;5.70;90.20
11744;DHT22;5929;51.906;7.674;2023-04-03T09:38:18;5.70;88.50
11744;DHT22;5929;51.906;7.674;2023-04-03T09:40:47;5.70;89.30
11744;DHT22;5929;51.906;7.674;2023-04-03T09:43:25;5.80;90.10
11744;DHT22;5929;51.906;7.674;2023-04-03T09:45:53;6.00;89.20
11744;DHT22;5929;51.906;7.674;2023-04-03T09:48:22;6.00;89.00
11744;DHT22;5929;51.906;7.674;2023-04-03T09:50:55;5.90;87.50
11744;DHT22;5929;51.906;7.674;2023-04-03T09:53:30;5.80;87.30
11744;DHT22;5929;51.906;7.674;2023-04-03T09:55:57;6.00;90.00
11744;DHT22;5929;51.906;7.674;2023-04-03T09:58:29;6.20;88.30
11744;DHT22;5929;51.906;7.674;2023-04-03T10:00:58;6.30;87.70
11744;DHT22;5929;51.906;7.674;2023-04-03T10:03:29;6.40;87.70
11744;DHT22;5929;51.906;7.674;2023-04-03T10:05:58;6.40;87.80
11744;DHT22;5929;51.906;7.674;2023-04-03T10:08:28;6.50;87.30
11744;DHT22;5929;51.906;7.674;2023-04-03T10:11:11;6.60;86.90
11744;DHT22;5929;51.906;7.674;2023-04-03T10:13:52;6.60;86.80
11744;DHT22;5929;51.906;7.674;2023-04-03T10:16:22;6.70;87.60
11744;DHT22;5929;51.906;7.674;2023-04-03T10:19:09;6.80;86.30
11744;DHT22;5929;51.906;7.674;2023-04-03T10:21:44;6.90;86.40
11744;DHT22;5929;51.906;7.674;2023-04-03T10:24:16;7.00;85.30
11744;DHT22;5929;51.906;7.674;2023-04-03T10:26:52;7.10;84.60
11744;DHT22;5929;51.906;7.674;2023-04-03T10:29:40;7.10;83.40
11744;DHT22;5929;51.906;7.674;2023-04-03T10:35:02;7.30;85.40
11744;DHT22;5929;51.906;7.674;2023-04-03T10:37:46;7.30;83.70
11744;DHT22;5929;51.906;7.674;2023-04-03T10:40:24;7.40;84.10
11744;DHT22;5929;51.906;7.674;2023-04-03T10:43:01;7.40;83.50
11744;DHT22;5929;51.906;7.674;2023-04-03T10:45:33;7.50;82.70
11744;DHT22;5929;51.906;7.674;2023-04-03T10:48:06;7.70;85.70
11744;DHT22;5929;51.906;7.674;2023-04-03T10:50:40;7.80;83.80
11744;DHT22;5929;51.906;7.674;2023-04-03T10:53:17;8.00;84.30
11744;DHT22;5929;51.906;7.674;2023-04-03T10:55:53;8.10;83.30
11744;DHT22;5929;51.906;7.674;2023-04-03T10:58:29;8.20;82.00
11744;DHT22;5929;51.906;7.674;2023-04-03T11:01:05;8.40;82.20
11744;DHT22;5929;51.906;7.674;2023-04-03T11:03:35;8.60;82.90
11744;DHT22;5929;51.906;7.674;2023-04-03T11:06:07;8.70;82.10
11744;DHT22;5929;51.906;7.674;2023-04-03T11:08:38;8.80;82.90
11744;DHT22;5929;51.906;7.674;2023-04-03T11:11:11;8.90;82.00
11744;DHT22;5929;51.906;7.674;2023-04-03T11:13:43;9.20;81.10
11744;DHT22;5929;51.906;7.674;2023-04-03T11:16:18;9.40;81.20
11744;DHT22;5929;51.906;7.674;2023-04-03T11:18:49;10.00;78.70
11744;DHT22;5929;51.906;7.674;2023-04-03T11:21:21;10.70;77.90
11744;DHT22;5929;51.906;7.674;2023-04-03T11:23:51;11.70;75.70
11744;DHT22;5929;51.906;7.674;2023-04-03T11:26:22;11.80;76.80
11744;DHT22;5929;51.906;7.674;2023-04-03T11:28:53;12.00;74.80
11744;DHT22;5929;51.906;7.674;2023-04-03T11:31:33;11.70;73.80
11744;DHT22;5929;51.906;7.674;2023-04-03T11:34:12;12.10;74.00
11744;DHT22;5929;51.906;7.674;2023-04-03T11:36:44;12.40;75.00
11744;DHT22;5929;51.906;7.674;2023-04-03T11:39:19;12.50;73.00
11744;DHT22;5929;51.906;7.674;2023-04-03T11:41:51;12.70;71.50
11744;DHT22;5929;51.906;7.674;2023-04-03T11:44:34;12.80;70.80
11744;DHT22;5929;51.906;7.674;2023-04-03T11:47:05;12.80;71.30
11744;DHT22;5929;51.906;7.674;2023-04-03T11:49:54;13.20;71.00
11744;DHT22;5929;51.906;7.674;2023-04-03T11:52:57;12.90;71.50
11744;DHT22;5929;51.906;7.674;2023-04-03T11:55:58;13.00;68.40
11744;DHT22;5929;51.906;7.674;2023-04-03T11:58:27;13.90;68.70
11744;DHT22;5929;51.906;7.674;2023-04-03T12:00:56;13.10;71.40
11744;DHT22;5929;51.906;7.674;2023-04-03T12:10:12;13.90;70.70
11744;DHT22;5929;51.906;7.674;2023-04-03T12:12:40;13.50;70.50
11744;DHT22;5929;51.906;7.674;2023-04-03T12:15:50;13.40;68.70
11744;DHT22;5929;51.906;7.674;2023-04-03T12:18:42;12.60;69.00
11744;DHT22;5929;51.906;7.674;2023-04-03T12:21:10;12.10;69.80
11744;DHT22;5929;51.906;7.674;2023-04-03T12:24:00;11.50;71.10
11744;DHT22;5929;51.906;7.674;2023-04-03T12:26:31;11.10;74.60
11744;DHT22;5929;51.906;7.674;2023-04-03T12:29:02;12.10;74.90
11744;DHT22;5929;51.906;7.674;2023-04-03T12:31:46;13.30;71.60
11744;DHT22;5929;51.906;7.674;2023-04-03T12:34:26;13.30;69.90
11744;DHT22;5929;51.906;7.674;2023-04-03T12:37:01;13.50;69.40
11744;DHT22;5929;51.906;7.674;2023-04-03T12:39:52;13.70;69.20
11744;DHT22;5929;51.906;7.674;2023-04-03T12:42:39;13.90;68.90
11744;DHT22;5929;51.906;7.674;2023-04-03T12:45:16;13.70;68.90
11744;DHT22;5929;51.906;7.674;2023-04-03T12:47:44;13.80;68.10
11744;DHT22;5929;51.906;7.674;2023-04-03T12:50:22;14.20;68.20
11744;DHT22;5929;51.906;7.674;2023-04-03T12:52:54;14.70;70.30
11744;DHT22;5929;51.906;7.674;2023-04-03T12:55:23;14.90;66.70
11744;DHT22;5929;51.906;7.674;2023-04-03T12:57:49;14.50;67.00
11744;DHT22;5929;51.906;7.674;2023-04-03T13:00:22;14.20;66.10
11744;DHT22;5929;51.906;7.674;2023-04-03T13:02:49;14.20;67.10
11744;DHT22;5929;51.906;7.674;2023-04-03T13:05:18;13.40;65.70
11744;DHT22;5929;51.906;7.674;2023-04-03T13:07:49;13.30;69.80
11744;DHT22;5929;51.906;7.674;2023-04-03T13:10:17;13.70;69.30
11744;DHT22;5929;51.906;7.674;2023-04-03T13:12:47;14.50;67.60
11744;DHT22;5929;51.906;7.674;2023-04-03T13:15:17;14.60;66.90
11744;DHT22;5929;51.906;7.674;2023-04-03T13:17:44;14.90;66.30
11744;DHT22;5929;51.906;7.674;2023-04-03T13:20:18;15.10;68.00
11744;DHT22;5929;51.906;7.674;2023-04-03T13:22:51;15.20;65.50
11744;DHT22;5929;51.906;7.674;2023-04-03T13:25:21;14.90;66.10
11744;DHT22;5929;51.906;7.674;2023-04-03T13:27:49;15.20;64.70
11744;DHT22;5929;51.906;7.674;2023-04-03T13:30:27;14.60;66.30
11744;DHT22;5929;51.906;7.674;2023-04-03T13:32:56;15.20;68.70
11744;DHT22;5929;51.906;7.674;2023-04-03T13:35:31;15.20;66.20
11744;DHT22;5929;51.906;7.674;2023-04-03T13:38:02;14.40;67.70
11744;DHT22;5929;51.906;7.674;2023-04-03T13:40:30;13.20;67.80
11744;DHT22;5929;51.906;7.674;2023-04-03T13:43:03;12.40;69.20
11744;DHT22;5929;51.906;7.674;2023-04-03T13:45:31;11.70;70.60
11744;DHT22;5929;51.906;7.674;2023-04-03T13:48:11;11.60;72.80
11744;DHT22;5929;51.906;7.674;2023-04-03T13:50:54;12.20;72.20
11744;DHT22;5929;51.906;7.674;2023-04-03T13:53:25;12.90;71.20
11744;DHT22;5929;51.906;7.674;2023-04-03T13:55:59;13.70;71.00
11744;DHT22;5929;51.906;7.674;2023-04-03T13:58:27;13.60;69.10
11744;DHT22;5929;51.906;7.674;2023-04-03T14:00:59;13.70;68.10
11744;DHT22;5929;51.906;7.674;2023-04-03T14:03:40;13.70;66.90
11744;DHT22;5929;51.906;7.674;2023-04-03T14:06:11;14.20;67.80
11744;DHT22;5929;51.906;7.674;2023-04-03T14:08:40;13.90;66.70
11744;DHT22;5929;51.906;7.674;2023-04-03T14:11:12;13.50;67.80
11744;DHT22;5929;51.906;7.674;2023-04-03T14:13:41;13.40;67.60
11744;DHT22;5929;51.906;7.674;2023-04-03T14:16:14;13.60;67.20
11744;DHT22;5929;51.906;7.674;2023-04-03T14:18:42;13.60;66.70
11744;DHT22;5929;51.906;7.674;2023-04-03T14:21:12;13.60;68.40
11744;DHT22;5929;51.906;7.674;2023-04-03T14:23:40;13.70;66.50
11744;DHT22;5929;51.906;7.674;2023-04-03T14:26:11;13.30;69.20
11744;DHT22;5929;51.906;7.674;2023-04-03T14:28:38;13.30;71.20
11744;DHT22;5929;51.906;7.674;2023-04-03T14:31:06;13.10;68.60
11744;DHT22;5929;51.906;7.674;2023-04-03T14:33:33;13.30;69.20
11744;DHT22;5929;51.906;7.674;2023-04-03T14:36:01;13.30;68.30
11744;DHT22;5929;51.906;7.674;2023-04-03T14:38:30;13.40;66.50
11744;DHT22;5929;51.906;7.674;2023-04-03T14:40:59;13.40;67.50
11744;DHT22;5929;51.906;7.674;2023-04-03T14:43:25;13.50;65.40
11744;DHT22;5929;51.906;7.674;2023-04-03T14:45:53;13.30;66.20
11744;DHT22;5929;51.906;7.674;2023-04-03T14:48:22;13.80;67.20
11744;DHT22;5929;51.906;7.674;2023-04-03T14:50:51;13.60;67.20
11744;DHT22;5929;51.906;7.674;2023-04-03T14:53:18;13.20;67.00
11744;DHT22;5929;51.906;7.674;2023-04-03T14:55:48;13.60;66.60
11744;DHT22;5929;51.906;7.674;2023-04-03T14:58:20;12.90;68.00
11744;DHT22;5929;51.906;7.674;2023-04-03T15:00:49;12.30;68.30
11744;DHT22;5929;51.906;7.674;2023-04-03T15:03:18;12.60;69.90
11744;DHT22;5929;51.906;7.674;2023-04-03T15:05:47;12.50;69.30
11744;DHT22;5929;51.906;7.674;2023-04-03T15:08:19;11.70;69.10
11744;DHT22;5929;51.906;7.674;2023-04-03T15:10:47;11.90;70.40
11744;DHT22;5929;51.906;7.674;2023-04-03T15:13:18;11.80;69.80
11744;DHT22;5929;51.906;7.674;2023-04-03T15:15:45;11.90;69.60
11744;DHT22;5929;51.906;7.674;2023-04-03T15:18:16;11.30;70.80
11744;DHT22;5929;51.906;7.674;2023-04-03T15:20:44;11.40;69.20
11744;DHT22;5929;51.906;7.674;2023-04-03T15:23:12;12.10;70.70
11744;DHT22;5929;51.906;7.674;2023-04-03T15:25:41;12.60;67.90
11744;DHT22;5929;51.906;7.674;2023-04-03T15:28:09;12.30;70.00
11744;DHT22;5929;51.906;7.674;2023-04-03T15:30:39;12.70;69.60
11744;DHT22;5929;51.906;7.674;2023-04-03T15:33:06;12.50;68.10
11744;DHT22;5929;51.906;7.674;2023-04-03T15:35:33;13.30;69.50
11744;DHT22;5929;51.906;7.674;2023-04-03T15:38:00;13.60;67.60
11744;DHT22;5929;51.906;7.674;2023-04-03T15:40:29;13.70;66.50
11744;DHT22;5929;51.906;7.674;2023-04-03T15:42:56;13.40;67.50
11744;DHT22;5929;51.906;7.674;2023-04-03T15:45:23;13.30;67.30
11744;DHT22;5929;51.906;7.674;2023-04-03T15:47:51;12.60;66.70
11744;DHT22;5929;51.906;7.674;2023-04-03T15:50:21;12.00;66.80
11744;DHT22;5929;51.906;7.674;2023-04-03T15:52:52;11.10;69.30
11744;DHT22;5929;51.906;7.674;2023-04-03T15:55:21;10.80;70.60
11744;DHT22;5929;51.906;7.674;2023-04-03T15:57:47;10.70;70.70
11744;DHT22;5929;51.906;7.674;2023-04-03T16:00:15;11.20;70.00
11744;DHT22;5929;51.906;7.674;2023-04-03T16:02:44;11.60;69.70
11744;DHT22;5929;51.906;7.674;2023-04-03T16:05:13;11.90;69.90
11744;DHT22;5929;51.906;7.674;2023-04-03T16:07:43;12.10;69.40
11744;DHT22;5929;51.906;7.674;2023-04-03T16:10:11;12.50;68.30
11744;DHT22;5929;51.906;7.674;2023-04-03T16:12:38;12.40;67.50
11744;DHT22;5929;51.906;7.674;2023-04-03T16:15:06;12.60;67.10
11744;DHT22;5929;51.906;7.674;2023-04-03T16:17:34;12.50;67.20
11744;DHT22;5929;51.906;7.674;2023-04-03T16:20:01;12.60;68.60
11744;DHT22;5929;51.906;7.674;2023-04-03T16:22:30;12.30;67.80
11744;DHT22;5929;51.906;7.674;2023-04-03T16:24:57;11.90;67.50
11744;DHT22;5929;51.906;7.674;2023-04-03T16:27:24;11.50;67.40
11744;DHT22;5929;51.906;7.674;2023-04-03T16:29:53;11.40;68.40